Flagg, Illinois
Current Conditions -  °F | °C
As of 4:35 PM on Sunday 21 Dec 2014 (Local Time) from KRPJ Reporting Station
Overcast Overcast  
Wind Chill: 26°   Ceiling: 2300
Heat Index: 35°   Visibility: 10mi
Dew Point: 32°   Wind: 13mph
Humidity: 89%   Direction: 160°SSE
Pressure: 30.05"   Gusts: NA
Location:  41.9424°N, 89.0653°W
Report Text: KRPJ 212235Z AUTO 16011KT 10SM OVC023 02/00 A3005 RMK AO2 T00161001
Loading
Personal Weather Stations






























Interactive Weather Map New forecast layout! Learn more

10-Day Weather Forecast

Advertisements
Track Severe Weather on mobile